Time;durP1;ratioP1;P1;durP2;ratioP2;P2;SDS_P1;SDS_P2;PMS_P1;PMS_P2;Temp;Humidity;BMP_temperature;BMP_pressure;BME280_temperature;BME280_humidity;BME280_pressure;Samples;Min_cycle;Max_cycle;Signal;HPM_P1;HPM_P2
2022/08/18 00:01:44;;;;;;;0.00;0.00;;;;;;;19.56;52.60;100901.59;7369925;19;20349;-62
2022/08/18 00:04:10;;;;;;;0.00;0.00;;;;;;;19.52;52.41;100897.44;7370148;19;20014;-62
2022/08/18 00:06:36;;;;;;;0.00;0.00;;;;;;;19.40;52.14;100877.78;7369319;19;20467;-62
2022/08/18 00:09:05;;;;;;;0.00;0.00;;;;;;;19.48;51.89;100895.06;7370650;19;20039;-62
2022/08/18 00:11:33;;;;;;;0.00;0.00;;;;;;;19.36;52.29;100880.69;7366309;19;20026;-62
2022/08/18 00:13:58;;;;;;;0.00;0.00;;;;;;;19.39;51.95;100889.31;7368521;19;20011;-62
2022/08/18 00:16:24;;;;;;;0.00;0.00;;;;;;;19.39;52.22;100891.97;7367912;19;25652;-61
2022/08/18 00:18:49;;;;;;;0.00;0.00;;;;;;;19.38;51.91;100890.28;7370806;19;20018;-62
2022/08/18 00:21:16;;;;;;;0.00;0.00;;;;;;;19.38;52.03;100884.13;7368664;19;20010;-62
2022/08/18 00:23:42;;;;;;;0.00;0.00;;;;;;;19.35;51.85;100879.84;7371084;19;20049;-62
2022/08/18 00:26:07;;;;;;;0.05;0.05;;;;;;;19.37;51.87;100877.97;7369439;19;20028;-62
2022/08/18 00:28:33;;;;;;;0.00;0.00;;;;;;;19.37;51.83;100872.69;7369963;19;20371;-62
2022/08/18 00:30:58;;;;;;;0.10;0.10;;;;;;;19.36;51.62;100865.69;7369624;19;20011;-62
2022/08/18 00:33:24;;;;;;;0.00;0.00;;;;;;;19.25;51.52;100841.59;7368724;19;20007;-61
2022/08/18 00:35:49;;;;;;;0.00;0.00;;;;;;;19.37;51.43;100856.78;7370145;19;20002;-62
2022/08/18 00:38:15;;;;;;;0.00;0.00;;;;;;;19.36;51.68;100849.78;7369474;19;20010;-60
2022/08/18 00:40:47;;;;;;;0.00;0.00;;;;;;;19.36;51.56;100844.50;7369821;19;20010;-61
2022/08/18 00:43:20;;;;;;;0.10;0.10;;;;;;;19.32;51.68;100842.13;7369109;19;20015;-60
2022/08/18 00:45:46;;;;;;;0.00;0.00;;;;;;;19.32;51.48;100842.13;7368867;19;20089;-62
2022/08/18 00:48:12;;;;;;;0.00;0.00;;;;;;;19.31;51.34;100835.97;7369428;19;22277;-62
2022/08/18 00:50:48;;;;;;;0.00;0.00;;;;;;;19.30;51.40;100838.69;7369549;19;20052;-62
2022/08/18 00:53:28;;;;;;;0.00;0.00;;;;;;;19.27;51.32;100839.72;7369177;19;20011;-62
2022/08/18 00:55:57;;;;;;;0.00;0.00;;;;;;;19.22;51.45;100828.53;7368323;19;20019;-62
2022/08/18 00:58:37;;;;;;;0.00;0.00;;;;;;;19.21;51.59;100828.59;7367177;19;20018;-62
2022/08/18 01:01:07;;;;;;;0.00;0.00;;;;;;;19.10;51.59;100821.28;7368809;19;20018;-62
2022/08/18 01:03:38;;;;;;;0.00;0.00;;;;;;;19.11;51.54;100830.91;7367610;19;20011;-62
2022/08/18 01:06:20;;;;;;;0.00;0.00;;;;;;;19.09;51.40;100820.41;7367845;19;20031;-62
2022/08/18 01:08:46;;;;;;;0.00;0.00;;;;;;;18.95;51.80;100811.53;7366991;19;20037;-62
2022/08/18 01:11:12;;;;;;;0.00;0.00;;;;;;;18.91;51.99;100801.16;7369156;19;20365;-62
2022/08/18 01:13:40;;;;;;;0.00;0.00;;;;;;;19.01;51.98;100816.47;7368625;19;20458;-62
2022/08/18 01:21:52;;;;;;;0.00;0.00;;;;;;;18.95;52.36;100795.66;7368109;19;20362;-60
2022/08/18 01:25:58;;;;;;;0.00;0.00;;;;;;;18.92;52.70;100804.63;7366313;19;20540;-62
2022/08/18 01:27:08;;;;;;;0.00;0.00;;;;;;;18.90;52.31;100802.06;7367767;19;20003;-62
2022/08/18 01:29:35;;;;;;;0.00;0.00;;;;;;;18.91;52.57;100801.16;7367604;19;20043;-61
2022/08/18 01:32:01;;;;;;;0.00;0.00;;;;;;;18.89;52.37;100795.06;7367699;19;20429;-62
2022/08/18 01:34:27;;;;;;;0.00;0.00;;;;;;;18.91;52.70;100795.84;7366441;19;20010;-62
2022/08/18 01:36:53;;;;;;;0.00;0.00;;;;;;;18.91;53.34;100790.56;7368099;19;20038;-62
2022/08/18 01:39:20;;;;;;;0.10;0.10;;;;;;;18.92;52.94;100786.97;7367805;19;20473;-62
2022/08/18 01:41:46;;;;;;;0.00;0.00;;;;;;;18.91;52.68;100779.13;7367257;19;20038;-62
2022/08/18 01:44:11;;;;;;;0.00;0.00;;;;;;;18.93;52.87;100774.59;7367988;19;20078;-61
2022/08/18 01:46:40;;;;;;;0.00;0.00;;;;;;;18.92;52.74;100779.03;7366778;19;20017;-62
2022/08/18 01:49:07;;;;;;;0.00;0.00;;;;;;;18.91;52.91;100768.53;7367980;19;20328;-62
2022/08/18 01:51:33;;;;;;;0.00;0.00;;;;;;;18.93;53.43;100761.34;7366216;19;20045;-61
2022/08/18 01:54:00;;;;;;;0.10;0.10;;;;;;;18.92;53.38;100760.50;7368240;19;20010;-62
2022/08/18 01:56:26;;;;;;;0.10;0.10;;;;;;;18.91;53.81;100750.03;7365551;19;20440;-60
2022/08/18 01:58:53;;;;;;;0.00;0.00;;;;;;;18.91;53.79;100753.50;7358713;19;20040;-62
2022/08/18 02:01:19;;;;;;;0.00;0.00;;;;;;;18.92;53.90;100755.22;7363817;19;20007;-62
2022/08/18 02:03:50;;;;;;;0.10;0.10;;;;;;;18.93;53.28;100746.34;7364908;19;20085;-61
2022/08/18 02:06:17;;;;;;;0.00;0.00;;;;;;;18.92;53.83;100743.78;7361682;19;20014;-62
2022/08/18 02:08:43;;;;;;;0.00;0.00;;;;;;;18.91;53.96;100742.94;7365858;19;20428;-58
2022/08/18 02:11:09;;;;;;;0.00;0.00;;;;;;;18.82;53.98;100721.44;7363661;19;20514;-62
2022/08/18 02:13:35;;;;;;;0.00;0.00;;;;;;;18.62;54.71;100682.84;7363976;19;20010;-62
2022/08/18 02:16:00;;;;;;;0.00;0.00;;;;;;;18.88;53.79;100727.22;7363376;19;20010;-62
2022/08/18 02:18:29;;;;;;;0.00;0.00;;;;;;;18.88;54.31;100726.38;7363747;19;20928;-61
2022/08/18 02:20:57;;;;;;;0.00;0.00;;;;;;;18.83;54.05;100729.28;7365077;19;20632;-62
2022/08/18 02:23:23;;;;;;;0.05;0.05;;;;;;;18.81;54.73;100719.72;7363312;19;20013;-61
2022/08/18 02:25:49;;;;;;;0.00;0.00;;;;;;;18.74;54.89;100716.56;7364120;19;21662;-62
2022/08/18 02:28:14;;;;;;;0.00;0.00;;;;;;;18.70;55.27;100717.66;7363912;19;20040;-62
2022/08/18 02:30:40;;;;;;;0.00;0.00;;;;;;;18.65;54.69;100717.03;7362058;19;21485;-61
2022/08/18 02:33:08;;;;;;;0.00;0.00;;;;;;;18.61;55.07;100724.31;7363816;19;20015;-62
2022/08/18 02:35:33;;;;;;;0.00;0.00;;;;;;;18.58;55.49;100720.97;7360354;19;20010;-62
2022/08/18 02:38:00;;;;;;;0.00;0.00;;;;;;;18.53;54.86;100700.06;7365577;19;20036;-62
2022/08/18 02:40:26;;;;;;;0.00;0.00;;;;;;;18.55;54.99;100697.31;7358950;19;20027;-62
2022/08/18 02:42:51;;;;;;;0.00;0.00;;;;;;;18.55;54.89;100705.25;7363730;19;20018;-62
2022/08/18 02:45:18;;;;;;;0.00;0.00;;;;;;;18.42;54.87;100676.88;7363834;19;20031;-61
2022/08/18 02:47:44;;;;;;;0.00;0.00;;;;;;;18.50;55.37;100694.09;7363545;19;20079;-61
2022/08/18 02:50:11;;;;;;;0.00;0.00;;;;;;;18.50;55.04;100688.78;7363098;19;20006;-61
2022/08/18 02:52:36;;;;;;;0.00;0.00;;;;;;;18.51;54.83;100685.25;7361764;19;20022;-59
2022/08/18 02:55:02;;;;;;;0.00;0.00;;;;;;;18.53;55.29;100693.94;7363685;19;20039;-61
2022/08/18 02:57:29;;;;;;;0.00;0.00;;;;;;;18.53;54.94;100683.34;7361866;19;20044;-60
2022/08/18 02:59:54;;;;;;;0.00;0.00;;;;;;;18.52;54.95;100679.84;7363865;19;20018;-61
2022/08/18 03:02:20;;;;;;;0.00;0.00;;;;;;;18.42;55.12;100661.00;7362865;19;20122;-61
2022/08/18 03:04:46;;;;;;;0.00;0.00;;;;;;;18.39;55.04;100665.59;7353278;19;20017;-62
2022/08/18 03:07:13;;;;;;;0.00;0.00;;;;;;;18.47;54.90;100675.75;7360555;19;20010;-62
2022/08/18 03:09:39;;;;;;;0.00;0.00;;;;;;;18.47;54.88;100679.25;7363240;19;20017;-62
2022/08/18 03:12:06;;;;;;;0.00;0.00;;;;;;;18.44;54.69;100671.47;7361195;19;20010;-62
2022/08/18 03:14:32;;;;;;;0.00;0.00;;;;;;;18.42;54.64;100671.59;7361259;19;20018;-61
2022/08/18 03:16:57;;;;;;;0.00;0.00;;;;;;;18.40;54.43;100673.47;7360010;19;20019;-61
2022/08/18 03:19:27;;;;;;;0.00;0.00;;;;;;;18.29;54.25;100654.69;7356998;19;20026;-62
2022/08/18 03:21:54;;;;;;;0.00;0.00;;;;;;;18.33;54.08;100666.78;7360517;19;20006;-61
2022/08/18 03:24:19;;;;;;;0.00;0.00;;;;;;;18.28;54.59;100663.56;7361522;19;20891;-61
2022/08/18 03:26:46;;;;;;;0.00;0.00;;;;;;;18.25;54.54;100658.47;7363666;19;20003;-61
2022/08/18 03:29:12;;;;;;;0.00;0.00;;;;;;;18.22;54.30;100657.75;7363954;19;20010;-61
2022/08/18 03:31:38;;;;;;;0.00;0.00;;;;;;;18.19;54.57;100657.91;7363154;19;20033;-62
2022/08/18 03:34:07;;;;;;;0.00;0.00;;;;;;;18.12;54.61;100641.56;7363825;19;20069;-62
2022/08/18 03:36:34;;;;;;;0.00;0.00;;;;;;;18.12;55.09;100646.84;7363002;19;20130;-61
2022/08/18 03:39:09;;;;;;;0.05;0.05;;;;;;;18.12;54.40;100650.34;7364708;19;20096;-62
2022/08/18 03:41:38;;;;;;;0.00;0.00;;;;;;;18.08;55.22;100650.59;7363738;19;20479;-62
2022/08/18 03:44:03;;;;;;;0.00;0.00;;;;;;;17.95;55.32;100636.34;7365083;19;20770;-61
2022/08/18 03:46:32;;;;;;;0.00;0.00;;;;;;;17.93;55.32;100625.84;7365915;19;20031;-61
2022/08/18 03:48:58;;;;;;;0.00;0.00;;;;;;;17.97;55.74;100637.13;7370308;19;20142;-61
2022/08/18 03:51:26;;;;;;;0.00;0.00;;;;;;;17.98;55.38;100638.81;7370907;19;23852;-60
2022/08/18 03:53:56;;;;;;;0.00;0.00;;;;;;;17.96;55.65;100640.69;7370767;19;20022;-62
2022/08/18 03:56:24;;;;;;;0.00;0.00;;;;;;;17.96;56.02;100633.63;7368457;19;20014;-62
2022/08/18 03:58:53;;;;;;;0.00;0.00;;;;;;;17.96;55.99;100630.13;7370961;19;20014;-61
2022/08/18 04:01:23;;;;;;;0.00;0.00;;;;;;;17.96;56.24;100633.63;7370387;19;20014;-62
2022/08/18 04:03:55;;;;;;;0.00;0.00;;;;;;;17.96;56.17;100632.78;7370804;19;20351;-61
2022/08/18 04:06:33;;;;;;;0.00;0.00;;;;;;;17.96;55.27;100630.13;7369874;19;20018;-61
2022/08/18 04:09:00;;;;;;;0.00;0.00;;;;;;;17.93;56.16;100622.34;7370733;19;20003;-62
2022/08/18 04:11:29;;;;;;;0.00;0.00;;;;;;;17.95;56.68;100618.72;7367362;19;20023;-61
2022/08/18 04:13:57;;;;;;;0.00;0.00;;;;;;;17.95;56.40;100617.88;7371573;19;20010;-61
2022/08/18 04:16:25;;;;;;;0.00;0.00;;;;;;;17.84;56.32;100603.44;7371796;19;20032;-60
2022/08/18 04:18:50;;;;;;;0.00;0.00;;;;;;;17.96;56.19;100609.00;7370231;19;20090;-62
2022/08/18 04:21:17;;;;;;;0.00;0.00;;;;;;;17.97;56.73;100610.69;7369050;19;20014;-61
2022/08/18 04:23:42;;;;;;;0.00;0.00;;;;;;;17.95;56.87;100617.88;7369333;19;20018;-61
2022/08/18 04:26:11;;;;;;;0.00;0.00;;;;;;;17.90;56.84;100612.81;7369303;19;20010;-61
2022/08/18 04:28:37;;;;;;;0.00;0.00;;;;;;;17.92;57.09;100604.81;7368844;19;20010;-61
2022/08/18 04:31:08;;;;;;;0.00;0.00;;;;;;;17.93;56.20;100620.56;7367795;19;20120;-61
2022/08/18 04:33:33;;;;;;;0.00;0.00;;;;;;;17.88;57.48;100602.31;7369073;19;20006;-61
2022/08/18 04:36:08;;;;;;;0.00;0.00;;;;;;;17.92;56.91;100603.00;7369337;19;20125;-62
2022/08/18 04:38:33;;;;;;;0.00;0.00;;;;;;;17.91;56.38;100600.47;7368690;19;20017;-62
2022/08/18 04:40:59;;;;;;;0.00;0.00;;;;;;;17.89;57.83;100609.34;7369002;19;21227;-61
2022/08/18 04:43:24;;;;;;;0.00;0.00;;;;;;;17.78;57.74;100603.75;7368799;19;20022;-61
2022/08/18 04:45:50;;;;;;;0.10;0.10;;;;;;;17.83;58.26;100596.44;7368785;19;20018;-61
2022/08/18 04:48:16;;;;;;;0.00;0.00;;;;;;;17.86;58.79;100606.00;7369114;19;20007;-62
2022/08/18 04:50:43;;;;;;;0.00;0.00;;;;;;;17.80;58.78;100586.06;7367528;19;20003;-62
2022/08/18 04:56:14;;;;;;;0.00;0.00;;;;;;;17.82;58.33;100596.53;7262208;19;2004377;-62
2022/08/18 04:58:39;;;;;;;0.00;0.00;;;;;;;17.70;59.14;100576.91;7365467;19;20006;-62
2022/08/18 05:01:05;;;;;;;0.00;0.00;;;;;;;17.79;59.34;100587.00;7367469;19;20010;-61
2022/08/18 05:03:35;;;;;;;0.00;0.00;;;;;;;17.79;59.18;100588.75;7368394;19;20026;-62
2022/08/18 05:06:03;;;;;;;0.00;0.00;;;;;;;17.82;59.03;100581.53;7368856;19;20011;-61
2022/08/18 05:08:30;;;;;;;0.00;0.00;;;;;;;17.80;59.56;100582.56;7368793;19;20020;-60
2022/08/18 05:10:56;;;;;;;0.00;0.00;;;;;;;17.80;59.79;100587.84;7369421;19;20031;-62
2022/08/18 05:13:22;;;;;;;0.00;0.00;;;;;;;17.77;60.28;100586.22;7368217;19;20355;-61
2022/08/18 05:15:56;;;;;;;0.00;0.00;;;;;;;17.80;59.75;100582.56;7367807;19;20368;-60
2022/08/18 05:18:24;;;;;;;0.00;0.00;;;;;;;17.75;60.01;100593.38;7367269;19;20022;-62
2022/08/18 05:20:51;;;;;;;0.00;0.00;;;;;;;17.69;61.36;100585.75;7368117;19;20018;-60
2022/08/18 05:23:18;;;;;;;0.00;0.00;;;;;;;17.67;61.59;100582.31;7369024;19;20018;-61
2022/08/18 05:25:43;;;;;;;0.00;0.00;;;;;;;17.64;60.88;100579.88;7366866;19;20425;-62
2022/08/18 05:28:09;;;;;;;0.00;0.00;;;;;;;17.63;61.63;100575.50;7368309;19;20014;-62
2022/08/18 05:30:35;;;;;;;0.00;0.00;;;;;;;17.60;61.65;100570.41;7367188;19;20010;-62
2022/08/18 05:33:02;;;;;;;0.00;0.00;;;;;;;17.56;61.89;100563.56;7368429;19;20018;-62
2022/08/18 05:35:39;;;;;;;0.00;0.00;;;;;;;17.56;60.61;100555.66;7366436;19;20047;-62
2022/08/18 05:38:31;;;;;;;0.00;0.00;;;;;;;17.59;60.11;100566.06;7368070;19;20011;-62
2022/08/18 05:41:09;;;;;;;0.00;0.00;;;;;;;17.58;60.71;100557.25;7266448;19;2005950;-59
2022/08/18 05:43:36;;;;;;;0.00;0.00;;;;;;;17.55;62.04;100561.88;7366827;19;20017;-62
2022/08/18 05:46:04;;;;;;;;;;;;;;;17.60;58.54;100575.69;7366976;19;20017;-62
2022/08/18 05:48:30;;;;;;;;;;;;;;;17.61;58.21;100578.22;7368582;19;20001;-61
2022/08/18 05:50:56;;;;;;;0.00;0.00;;;;;;;17.57;61.97;100566.13;7367401;19;20394;-62
2022/08/18 05:56:45;;;;;;;0.00;0.00;;;;;;;17.56;62.13;100558.28;7368563;19;20487;-62
2022/08/18 05:58:56;;;;;;;0.00;0.00;;;;;;;17.43;62.51;100542.25;7357513;19;20021;-61
2022/08/18 06:01:25;;;;;;;;;;;;;;;17.58;58.99;100545.84;7363673;19;20017;-62
2022/08/18 06:03:58;;;;;;;0.00;0.00;;;;;;;17.57;62.17;100544.16;7365343;19;19919;-61
2022/08/18 06:06:28;;;;;;;0.00;0.00;;;;;;;17.59;62.66;100542.28;7364217;19;20010;-62
2022/08/18 06:09:06;;;;;;;0.00;0.00;;;;;;;17.61;61.45;100543.06;7365596;19;20066;-61
2022/08/18 06:11:31;;;;;;;;;;;;;;;17.66;59.02;100543.66;7365175;19;20010;-62
2022/08/18 06:13:57;;;;;;;0.00;0.00;;;;;;;17.56;62.45;100524.81;7365524;19;21179;-62
2022/08/18 06:16:53;;;;;;;0.00;0.00;;;;;;;17.70;60.64;100534.63;7362214;19;20018;-62
2022/08/18 06:19:39;;;;;;;0.00;0.00;;;;;;;17.69;61.91;100530.28;7263276;19;2004534;-61
2022/08/18 06:22:22;;;;;;;0.00;0.00;;;;;;;17.71;61.11;100525.78;7262220;19;2006706;-62
2022/08/18 06:24:53;;;;;;;0.00;0.00;;;;;;;17.73;61.58;100523.91;7363918;19;20015;-62
2022/08/18 06:27:54;;;;;;;0.00;0.00;;;;;;;17.77;61.80;100533.38;7364569;19;20010;-61
2022/08/18 06:30:42;;;;;;;0.00;0.00;;;;;;;17.79;62.86;100542.09;7263435;19;2004569;-61
2022/08/18 06:33:28;;;;;;;0.00;0.00;;;;;;;17.80;63.07;100538.50;7363714;19;20061;-62
2022/08/18 06:36:29;;;;;;;0.00;0.00;;;;;;;17.86;61.30;100535.53;7362887;19;20014;-62
2022/08/18 06:39:21;;;;;;;0.00;0.00;;;;;;;17.87;62.77;100534.56;7257273;19;2004147;-62
2022/08/18 06:41:49;;;;;;;0.00;0.00;;;;;;;17.94;62.72;100526.31;7362839;19;20026;-62
2022/08/18 06:44:33;;;;;;;0.00;0.00;;;;;;;17.96;62.41;100524.44;7361488;19;20011;-62
2022/08/18 06:47:17;;;;;;;0.00;0.00;;;;;;;18.01;61.83;100528.53;7363628;19;20019;-62
2022/08/18 06:50:29;;;;;;;0.00;0.00;;;;;;;18.05;60.88;100523.94;7365257;19;20098;-62
2022/08/18 06:53:03;;;;;;;0.00;0.00;;;;;;;18.07;61.99;100528.19;7261830;19;2004057;-61
2022/08/18 06:55:38;;;;;;;0.00;0.00;;;;;;;18.09;62.79;100530.72;7359375;19;20015;-61
2022/08/18 06:58:06;;;;;;;0.00;0.00;;;;;;;18.11;62.81;100529.72;7361631;19;20018;-61
2022/08/18 07:00:35;;;;;;;0.00;0.00;;;;;;;18.11;63.19;100513.00;7364361;19;20041;-61
2022/08/18 07:03:12;;;;;;;0.00;0.00;;;;;;;18.22;62.53;100515.88;7363688;19;20616;-59
2022/08/18 07:06:17;;;;;;;0.00;0.00;;;;;;;18.29;61.89;100509.28;7362223;19;20478;-62
2022/08/18 07:08:44;;;;;;;0.00;0.00;;;;;;;18.31;63.08;100518.00;7261369;19;2004097;-62
2022/08/18 07:11:41;;;;;;;0.00;0.00;;;;;;;18.36;62.91;100523.03;7361583;19;20011;-62
2022/08/18 07:14:20;;;;;;;0.00;0.00;;;;;;;18.44;62.18;100517.28;7260609;19;2004343;-62
2022/08/18 07:16:46;;;;;;;0.00;0.00;;;;;;;18.39;63.56;100513.09;7358635;19;20043;-62
2022/08/18 07:19:21;;;;;;;0.00;0.00;;;;;;;18.48;62.55;100511.72;7362413;19;20022;-59
2022/08/18 07:22:02;;;;;;;0.00;0.00;;;;;;;18.67;62.09;100511.50;7365366;19;20106;-62
2022/08/18 07:24:32;;;;;;;0.00;0.00;;;;;;;18.74;63.18;100520.78;7369301;19;20015;-61
2022/08/18 07:27:01;;;;;;;0.00;0.00;;;;;;;18.81;63.63;100519.50;7369030;19;20025;-61
2022/08/18 07:29:29;;;;;;;0.00;0.00;;;;;;;18.83;63.82;100520.25;7367551;19;20010;-61
2022/08/18 07:31:58;;;;;;;0.08;0.08;;;;;;;18.88;63.42;100512.88;7368923;19;20018;-62
2022/08/18 07:34:32;;;;;;;0.00;0.00;;;;;;;18.93;63.67;100510.81;7370481;19;20014;-62
2022/08/18 07:37:01;;;;;;;0.00;0.00;;;;;;;18.98;62.95;100510.53;7368157;19;20808;-62
2022/08/18 07:39:37;;;;;;;0.00;0.00;;;;;;;18.98;62.40;100493.81;7368181;19;20491;-61
2022/08/18 07:42:23;;;;;;;0.00;0.00;;;;;;;19.10;62.61;100498.34;7367357;19;20011;-61
2022/08/18 07:45:02;;;;;;;0.00;0.00;;;;;;;19.13;62.56;100498.16;7369564;19;20032;-62
2022/08/18 07:47:37;;;;;;;0.00;0.00;;;;;;;19.16;62.82;100513.88;7368412;19;20017;-62
2022/08/18 07:50:05;;;;;;;0.00;0.00;;;;;;;19.18;63.78;100501.38;7369138;19;20015;-60
2022/08/18 07:52:40;;;;;;;0.00;0.00;;;;;;;19.25;63.16;100500.03;7368959;19;20017;-62
2022/08/18 07:55:05;;;;;;;0.00;0.00;;;;;;;19.27;63.48;100505.28;7366831;19;20010;-61
2022/08/18 07:57:43;;;;;;;0.00;0.00;;;;;;;19.36;62.76;100509.97;7368568;19;20080;-62
2022/08/18 08:00:09;;;;;;;0.00;0.00;;;;;;;19.38;63.47;100508.09;7367719;19;20014;-61
2022/08/18 08:02:45;;;;;;;0.00;0.00;;;;;;;19.47;62.91;100502.22;7369413;19;20006;-62
2022/08/18 08:05:16;;;;;;;0.05;0.05;;;;;;;19.42;62.78;100483.13;7368391;19;20471;-62
2022/08/18 08:07:56;;;;;;;0.00;0.00;;;;;;;19.56;62.51;100503.44;7361140;19;20010;-62
2022/08/18 08:10:44;;;;;;;0.00;0.00;;;;;;;19.60;62.14;100508.47;7370068;19;20457;-62
2022/08/18 08:13:31;;;;;;;0.00;0.00;;;;;;;19.65;62.33;100492.28;7367952;19;20090;-62
2022/08/18 08:16:18;;;;;;;0.10;0.10;;;;;;;19.68;62.91;100489.44;7368731;19;20011;-62
2022/08/18 08:19:06;;;;;;;0.00;0.00;;;;;;;19.73;61.69;100482.06;7366362;19;20022;-62
2022/08/18 08:21:39;;;;;;;0.00;0.00;;;;;;;19.60;63.58;100459.94;7367611;19;20375;-62
2022/08/18 08:24:13;;;;;;;0.00;0.00;;;;;;;19.77;62.96;100499.47;7370103;19;20021;-62
2022/08/18 08:27:13;;;;;;;0.00;0.00;;;;;;;19.81;62.52;100492.16;7366947;19;20454;-62
2022/08/18 08:29:41;;;;;;;0.00;0.00;;;;;;;19.77;64.06;100494.16;7267805;19;2004305;-62
2022/08/18 08:32:24;;;;;;;0.00;0.00;;;;;;;19.85;61.92;100486.56;7365768;19;20681;-60
2022/08/18 08:34:56;;;;;;;0.00;0.00;;;;;;;19.83;63.92;100493.75;7367925;19;20006;-62
2022/08/18 08:37:38;;;;;;;0.00;0.00;;;;;;;19.85;62.35;100468.00;7361326;19;20020;-62
2022/08/18 08:40:22;;;;;;;0.00;0.00;;;;;;;19.92;62.91;100461.38;7367429;19;20036;-62
2022/08/18 08:43:10;;;;;;;0.00;0.00;;;;;;;19.99;61.87;100466.28;7366090;19;20011;-62
2022/08/18 08:45:58;;;;;;;0.00;0.00;;;;;;;20.00;63.56;100454.72;7366092;19;20610;-62
2022/08/18 08:48:28;;;;;;;0.00;0.00;;;;;;;20.02;63.68;100444.84;7364334;19;20014;-62
2022/08/18 08:50:56;;;;;;;0.00;0.00;;;;;;;20.19;63.66;100453.38;7366654;19;20062;-62
2022/08/18 08:53:26;;;;;;;0.10;0.10;;;;;;;20.29;64.29;100448.31;7364182;19;20011;-62
2022/08/18 08:55:58;;;;;;;0.00;0.00;;;;;;;20.45;63.34;100454.28;7368074;19;20018;-61
2022/08/18 08:58:39;;;;;;;0.00;0.00;;;;;;;20.66;62.44;100461.78;7365330;19;20021;-62
2022/08/18 09:01:09;;;;;;;0.00;0.00;;;;;;;20.73;62.68;100471.00;7367058;19;20010;-62
2022/08/18 09:03:45;;;;;;;0.00;0.00;;;;;;;20.84;61.86;100460.50;7366026;19;20031;-62
2022/08/18 09:06:53;;;;;;;0.00;0.00;;;;;;;20.93;61.90;100459.88;7367115;19;19999;-62
2022/08/18 09:09:19;;;;;;;0.00;0.00;;;;;;;20.93;61.98;100454.56;7266039;19;2004570;-62
2022/08/18 09:12:10;;;;;;;0.00;0.00;;;;;;;21.01;61.28;100446.06;7366664;19;20014;-62
2022/08/18 09:15:05;;;;;;;0.00;0.00;;;;;;;21.06;61.40;100459.00;7264428;19;2004534;-62
2022/08/18 09:17:51;;;;;;;0.00;0.00;;;;;;;21.09;60.81;100437.56;7263316;19;2004302;-61
2022/08/18 09:20:28;;;;;;;0.00;0.00;;;;;;;21.11;61.11;100446.25;7367155;19;20013;-61
2022/08/18 09:23:04;;;;;;;0.00;0.00;;;;;;;21.11;61.36;100432.97;7367736;19;20082;-62
2022/08/18 09:25:40;;;;;;;0.00;0.00;;;;;;;21.10;61.84;100452.53;7365323;19;20011;-62
2022/08/18 09:28:11;;;;;;;0.00;0.00;;;;;;;21.17;61.53;100435.19;7367270;19;20022;-62
2022/08/18 09:31:04;;;;;;;0.00;0.00;;;;;;;21.26;60.80;100429.22;7367033;19;20114;-61
2022/08/18 09:33:44;;;;;;;0.00;0.00;;;;;;;21.31;61.22;100421.81;7264961;19;2004590;-61
2022/08/18 09:36:49;;;;;;;0.00;0.00;;;;;;;21.38;60.71;100420.41;7366699;19;20080;-62
2022/08/18 09:42:26;;;;;;;0.00;0.00;;;;;;;21.54;60.78;100416.63;7264654;19;2004528;-61
2022/08/18 09:44:54;;;;;;;0.00;0.00;;;;;;;21.59;61.05;100422.47;7365883;19;20006;-62
2022/08/18 09:47:19;;;;;;;0.00;0.00;;;;;;;21.66;60.66;100423.72;7366262;19;20018;-61
2022/08/18 09:49:54;;;;;;;0.00;0.00;;;;;;;21.70;60.93;100422.53;7366782;19;20607;-62
2022/08/18 09:52:20;;;;;;;0.00;0.00;;;;;;;21.75;61.13;100426.56;7365236;19;20348;-62
2022/08/18 09:54:58;;;;;;;0.00;0.00;;;;;;;21.91;60.36;100430.75;7365097;19;20103;-62
2022/08/18 09:57:30;;;;;;;0.00;0.00;;;;;;;21.96;59.78;100424.13;7365901;19;20022;-62
2022/08/18 10:00:10;;;;;;;0.00;0.00;;;;;;;22.03;59.67;100404.06;7365932;19;20006;-61
2022/08/18 10:02:36;;;;;;;0.00;0.00;;;;;;;22.03;60.27;100400.56;7366996;19;20118;-62
2022/08/18 10:07:46;;;;;;;0.00;0.00;;;;;;;22.14;59.79;100397.13;7365521;19;20504;-61
2022/08/18 10:10:48;;;;;;;0.00;0.00;;;;;;;22.26;59.50;100385.56;7367563;19;20636;-62
2022/08/18 10:13:35;;;;;;;0.00;0.00;;;;;;;22.31;59.45;100380.75;7264636;19;2004261;-62
2022/08/18 10:16:20;;;;;;;0.00;0.00;;;;;;;22.37;59.40;100374.09;7363296;19;20649;-61
2022/08/18 10:18:48;;;;;;;0.00;0.00;;;;;;;22.37;59.39;100374.94;7366572;19;20024;-61
2022/08/18 10:21:17;;;;;;;0.00;0.00;;;;;;;22.45;59.19;100369.84;7357586;19;20386;-61
2022/08/18 10:23:46;;;;;;;0.00;0.00;;;;;;;22.48;59.44;100366.97;7365902;19;20972;-60
2022/08/18 10:26:29;;;;;;;0.00;0.00;;;;;;;22.65;59.09;100368.31;7365263;19;20010;-61
2022/08/18 10:29:05;;;;;;;0.10;0.10;;;;;;;22.68;58.52;100361.91;7362442;19;20010;-61
2022/08/18 10:31:56;;;;;;;0.00;0.00;;;;;;;22.83;58.44;100352.72;7365601;19;20015;-62
2022/08/18 10:34:49;;;;;;;0.00;0.00;;;;;;;22.94;58.52;100358.06;7247245;19;2004531;-62
2022/08/18 10:37:29;;;;;;;0.00;0.00;;;;;;;23.02;58.26;100360.97;7254445;19;2004473;-61
2022/08/18 10:40:06;;;;;;;0.00;0.00;;;;;;;23.13;57.75;100378.75;7355934;19;20006;-61
2022/08/18 10:43:00;;;;;;;0.10;0.10;;;;;;;23.23;57.37;100352.22;7356346;19;21196;-62
2022/08/18 10:45:30;;;;;;;0.00;0.00;;;;;;;23.27;57.57;100359.00;7253401;19;2004788;-62
2022/08/18 10:48:20;;;;;;;0.00;0.00;;;;;;;23.36;57.54;100358.22;7355654;19;20814;-61
2022/08/18 10:51:01;;;;;;;0.00;0.00;;;;;;;23.40;57.05;100365.00;7355335;19;20747;-61
2022/08/18 10:53:26;;;;;;;0.00;0.00;;;;;;;23.42;57.11;100355.06;7354216;19;20052;-61
2022/08/18 10:56:08;;;;;;;0.00;0.00;;;;;;;23.51;56.44;100351.63;7358334;19;21226;-62
2022/08/18 10:58:42;;;;;;;0.00;0.00;;;;;;;23.50;56.90;100344.59;7360882;19;20039;-61
2022/08/18 11:01:13;;;;;;;0.00;0.00;;;;;;;23.46;56.73;100337.00;7362355;19;20006;-62
2022/08/18 11:03:47;;;;;;;0.00;0.00;;;;;;;23.50;56.79;100346.44;7361933;19;20010;-61
2022/08/18 11:06:18;;;;;;;0.00;0.00;;;;;;;23.47;56.80;100342.22;7361719;19;20010;-62
2022/08/18 11:08:47;;;;;;;0.00;0.00;;;;;;;23.47;57.23;100338.69;7361327;19;20015;-61
2022/08/18 11:11:18;;;;;;;0.10;0.10;;;;;;;23.44;56.95;100339.78;7358777;19;20002;-61
2022/08/18 11:13:59;;;;;;;0.00;0.00;;;;;;;23.41;56.70;100316.03;7361095;19;20006;-61
2022/08/18 11:16:50;;;;;;;0.00;0.00;;;;;;;23.49;56.61;100310.09;7360924;19;20602;-61
2022/08/18 11:19:19;;;;;;;0.00;0.00;;;;;;;23.42;57.18;100315.09;7258555;19;2004596;-62
2022/08/18 11:21:46;;;;;;;0.10;0.10;;;;;;;23.42;57.15;100314.22;7360866;19;20731;-61
2022/08/18 11:24:14;;;;;;;;;;;;;;;23.49;56.25;100316.28;7361602;19;20029;-61
2022/08/18 11:26:57;;;;;;;0.10;0.10;;;;;;;23.43;57.24;100326.59;7361713;19;19929;-61
2022/08/18 11:29:31;;;;;;;0.00;0.00;;;;;;;23.45;57.30;100319.31;7361408;19;20002;-61
2022/08/18 11:31:59;;;;;;;0.00;0.00;;;;;;;23.43;57.29;100323.94;7361302;19;20037;-61
2022/08/18 11:34:36;;;;;;;0.00;0.00;;;;;;;23.36;57.35;100288.94;7361352;19;20018;-61
2022/08/18 11:37:08;;;;;;;0.10;0.10;;;;;;;23.47;57.39;100302.25;7359748;19;20730;-62
2022/08/18 11:39:44;;;;;;;0.10;0.10;;;;;;;23.50;57.40;100295.78;7361491;19;20046;-62
2022/08/18 11:42:09;;;;;;;0.10;0.10;;;;;;;23.48;57.18;100303.94;7359885;19;20028;-59
2022/08/18 11:44:37;;;;;;;0.00;0.00;;;;;;;23.51;57.20;100303.66;7361585;19;21390;-61
2022/08/18 11:47:14;;;;;;;0.10;0.10;;;;;;;23.56;56.86;100300.59;7360104;19;20543;-62
2022/08/18 11:49:58;;;;;;;;;;;;;;;23.60;56.37;100295.88;7361330;19;20023;-61
2022/08/18 11:52:28;;;;;;;0.00;0.00;;;;;;;23.53;57.48;100298.22;7360201;19;20465;-62
2022/08/18 11:55:01;;;;;;;0.00;0.00;;;;;;;23.58;57.22;100305.84;7358798;19;20014;-62
2022/08/18 11:57:54;;;;;;;0.10;0.10;;;;;;;23.61;57.03;100297.56;7360140;19;20032;-61
2022/08/18 12:00:56;;;;;;;0.00;0.00;;;;;;;23.64;57.01;100297.34;7258805;19;2004351;-61
2022/08/18 12:03:47;;;;;;;0.10;0.10;;;;;;;23.55;57.27;100277.59;7257777;19;2004578;-61
2022/08/18 12:06:24;;;;;;;0.00;0.00;;;;;;;23.66;57.47;100298.06;7359676;19;20011;-60
2022/08/18 12:08:59;;;;;;;0.10;0.10;;;;;;;23.68;57.28;100282.78;7360999;19;20006;-62